createdAt,value
2018-08-07T00:00:26.127Z,10.80
2018-08-07T00:02:54.587Z,10.20
2018-08-07T00:05:23.128Z,12.47
2018-08-07T00:07:53.662Z,11.40
2018-08-07T00:10:23.575Z,10.33
2018-08-07T00:12:52.438Z,10.80
2018-08-07T00:15:23.368Z,10.23
2018-08-07T00:17:52.060Z,9.27
2018-08-07T00:20:20.816Z,9.23
2018-08-07T00:22:49.578Z,10.27
2018-08-07T00:25:18.128Z,9.50
2018-08-07T00:27:46.592Z,9.50
2018-08-07T00:30:16.431Z,10.63
2018-08-07T00:32:45.135Z,11.10
2018-08-07T00:35:18.369Z,11.60
2018-08-07T00:37:47.495Z,10.67
2018-08-07T00:40:17.297Z,12.03
2018-08-07T00:42:47.501Z,10.67
2018-08-07T00:45:20.356Z,12.10
2018-08-07T00:47:49.352Z,12.77
2018-08-07T00:50:19.730Z,12.97
2018-08-07T00:52:49.323Z,12.93
2018-08-07T00:55:19.195Z,13.50
2018-08-07T00:57:48.564Z,13.30
2018-08-07T01:00:17.022Z,15.00
2018-08-07T01:02:45.522Z,15.37
2018-08-07T01:05:15.754Z,16.57
2018-08-07T01:07:44.383Z,14.50
2018-08-07T01:10:14.744Z,15.00
2018-08-07T01:12:43.369Z,17.53
2018-08-07T01:15:15.078Z,18.80
2018-08-07T01:17:44.584Z,19.27
2018-08-07T01:20:18.244Z,19.70
2018-08-07T01:22:48.733Z,18.43
2018-08-07T01:25:26.218Z,18.73
2018-08-07T01:27:56.364Z,18.60
2018-08-07T01:30:28.824Z,18.80
2018-08-07T01:32:59.226Z,19.30
2018-08-07T01:35:34.908Z,18.80
2018-08-07T01:38:06.104Z,17.90
2018-08-07T01:40:40.215Z,16.90
2018-08-07T01:43:12.321Z,17.70
2018-08-07T01:45:44.915Z,16.17
2018-08-07T01:48:16.027Z,16.70
2018-08-07T01:50:49.316Z,16.40
2018-08-07T01:53:18.957Z,16.00
2018-08-07T01:55:49.116Z,17.00
2018-08-07T01:58:19.927Z,17.63
2018-08-07T02:00:50.003Z,17.53
2018-08-07T02:03:29.035Z,16.17
2018-08-07T02:06:04.539Z,15.07
2018-08-07T02:08:37.382Z,15.87
2018-08-07T02:11:07.187Z,16.63
2018-08-07T02:13:39.961Z,16.17
2018-08-07T02:16:10.668Z,15.40
2018-08-07T02:18:40.798Z,15.40
2018-08-07T02:21:14.284Z,16.00
2018-08-07T02:23:45.682Z,15.20
2018-08-07T02:26:17.994Z,14.17
2018-08-07T02:28:49.744Z,14.47
2018-08-07T02:31:19.219Z,15.73
2018-08-07T02:33:53.104Z,16.47
2018-08-07T02:36:25.502Z,16.37
2018-08-07T02:39:01.549Z,14.50
2018-08-07T02:41:34.883Z,15.20
2018-08-07T02:44:05.735Z,15.00
2018-08-07T02:46:36.507Z,14.50
2018-08-07T02:49:10.290Z,14.70
2018-08-07T02:51:41.400Z,13.63
2018-08-07T02:54:11.336Z,15.17
2018-08-07T02:56:41.833Z,15.37
2018-08-07T02:59:12.776Z,15.30
2018-08-07T03:01:46.893Z,14.63
2018-08-07T03:04:18.903Z,18.37
2018-08-07T03:06:53.094Z,17.70
2018-08-07T03:09:25.026Z,16.93
2018-08-07T03:11:55.182Z,17.60
2018-08-07T03:14:25.638Z,17.30
2018-08-07T03:16:56.800Z,18.13
2018-08-07T03:19:28.371Z,18.50
2018-08-07T03:21:59.564Z,20.23
2018-08-07T03:24:31.109Z,17.97
2018-08-07T03:27:02.383Z,22.67
2018-08-07T03:29:35.778Z,22.10
2018-08-07T03:32:10.382Z,19.60
2018-08-07T03:34:43.823Z,21.50
2018-08-07T03:37:14.170Z,23.20
2018-08-07T03:39:44.400Z,25.53
2018-08-07T03:42:14.111Z,28.30
2018-08-07T03:44:49.381Z,26.33
2018-08-07T03:47:19.581Z,24.90
2018-08-07T03:49:49.563Z,25.60
2018-08-07T03:52:20.042Z,25.97
2018-08-07T03:54:50.602Z,24.53
2018-08-07T03:57:19.961Z,25.17
2018-08-07T03:59:50.675Z,25.40
2018-08-07T04:02:24.223Z,29.63
2018-08-07T04:04:55.169Z,27.00
2018-08-07T04:07:26.409Z,28.50
2018-08-07T04:09:57.274Z,32.10
2018-08-07T04:22:14.297Z,28.83
2018-08-07T04:24:46.832Z,32.40
2018-08-07T04:27:16.852Z,33.10
2018-08-07T04:29:48.362Z,33.20
2018-08-07T04:32:19.448Z,28.30
2018-08-07T04:34:56.157Z,28.17
2018-08-07T04:37:28.968Z,30.60
2018-08-07T04:40:03.798Z,34.37
2018-08-07T04:42:36.444Z,28.87
2018-08-07T04:45:14.270Z,27.17
2018-08-07T04:47:46.937Z,27.83
2018-08-07T04:50:34.205Z,29.30
2018-08-07T04:53:05.284Z,31.07
2018-08-07T04:55:35.477Z,32.73
2018-08-07T04:58:07.658Z,32.93
2018-08-07T05:00:37.404Z,32.17
2018-08-07T05:03:07.641Z,33.40
2018-08-07T05:05:37.499Z,33.47
2018-08-07T05:08:11.759Z,33.17
2018-08-07T05:10:42.948Z,32.53
2018-08-07T05:22:57.399Z,31.63
2018-08-07T05:25:29.613Z,30.83
2018-08-07T05:28:07.399Z,31.03
2018-08-07T05:30:39.295Z,31.13
2018-08-07T05:33:10.601Z,31.33
2018-08-07T05:35:41.713Z,28.33
2018-08-07T05:38:11.111Z,29.63
2018-08-07T05:40:45.832Z,28.93
2018-08-07T05:43:14.708Z,27.97
2018-08-07T05:45:50.666Z,28.00
2018-08-07T05:48:20.236Z,29.27
2018-08-07T05:50:53.782Z,28.03
2018-08-07T05:53:22.521Z,29.30
2018-08-07T05:55:53.009Z,30.80
2018-08-07T05:58:25.868Z,27.40
2018-08-07T06:00:57.235Z,27.23
2018-08-07T06:03:28.820Z,29.67
2018-08-07T06:05:59.059Z,26.60
2018-08-07T06:08:27.618Z,24.20
2018-08-07T06:10:57.263Z,24.97
2018-08-07T06:13:26.215Z,23.87
2018-08-07T06:15:56.639Z,25.63
2018-08-07T06:18:27.291Z,25.93
2018-08-07T06:20:57.926Z,24.67
2018-08-07T06:23:26.778Z,25.80
2018-08-07T06:25:59.793Z,25.97
2018-08-07T06:28:30.077Z,24.03
2018-08-07T06:31:00.643Z,22.53
2018-08-07T06:33:32.492Z,23.87
2018-08-07T06:36:02.622Z,21.77
2018-08-07T06:38:33.158Z,22.37
2018-08-07T06:41:01.944Z,21.23
2018-08-07T06:43:33.619Z,20.63
2018-08-07T06:46:03.700Z,20.80
2018-08-07T06:48:34.209Z,20.40
2018-08-07T06:51:06.123Z,21.20
2018-08-07T06:53:38.095Z,19.23
2018-08-07T06:56:10.385Z,21.73
2018-08-07T06:58:42.204Z,19.67
2018-08-07T07:01:12.167Z,20.63
2018-08-07T07:03:43.897Z,20.13
2018-08-07T07:06:16.866Z,19.97
2018-08-07T07:08:54.450Z,20.30
2018-08-07T07:11:27.076Z,19.47
2018-08-07T07:13:58.880Z,19.67
2018-08-07T07:16:29.397Z,21.00
2018-08-07T07:19:01.503Z,20.40
2018-08-07T07:21:34.268Z,20.70
2018-08-07T07:24:06.457Z,18.20
2018-08-07T07:26:37.820Z,18.00
2018-08-07T07:29:06.572Z,17.07
2018-08-07T07:31:35.477Z,18.03
2018-08-07T07:34:06.289Z,14.17
2018-08-07T07:36:41.548Z,16.00
2018-08-07T07:39:15.084Z,16.17
2018-08-07T07:41:45.875Z,14.40
2018-08-07T07:44:17.135Z,14.30
2018-08-07T07:46:46.855Z,12.30
2018-08-07T07:49:17.263Z,12.77
2018-08-07T07:51:48.549Z,12.50
2018-08-07T07:54:17.442Z,9.97
2018-08-07T07:56:48.463Z,13.50
2018-08-07T07:59:18.872Z,11.50
2018-08-07T08:01:53.454Z,12.30
2018-08-07T08:04:23.232Z,12.10
2018-08-07T08:06:52.360Z,9.10
2018-08-07T08:09:24.777Z,11.53
2018-08-07T08:11:54.745Z,9.03
2018-08-07T08:14:29.870Z,12.70
2018-08-07T08:17:00.885Z,8.20
2018-08-07T08:19:30.373Z,11.33
2018-08-07T08:22:00.921Z,9.17
2018-08-07T08:24:31.089Z,8.50
2018-08-07T08:27:02.703Z,6.17
2018-08-07T08:29:32.747Z,6.10
2018-08-07T08:32:04.696Z,8.57
2018-08-07T08:34:35.667Z,6.80
2018-08-07T08:37:04.867Z,7.07
2018-08-07T08:39:33.795Z,8.67
2018-08-07T08:42:05.044Z,11.13
2018-08-07T08:44:38.312Z,9.40
2018-08-07T08:47:09.653Z,8.03
2018-08-07T08:49:41.103Z,10.47
2018-08-07T08:52:13.037Z,7.80
2018-08-07T09:04:31.463Z,6.70
2018-08-07T09:07:01.885Z,8.00
2018-08-07T09:09:38.738Z,7.10
2018-08-07T09:12:09.013Z,7.40
2018-08-07T09:14:39.946Z,6.37
2018-08-07T09:17:08.671Z,6.67
2018-08-07T09:19:39.995Z,6.80
2018-08-07T09:22:10.542Z,8.97
2018-08-07T09:24:41.655Z,10.67
2018-08-07T09:27:16.873Z,6.53
2018-08-07T09:29:48.903Z,6.70
2018-08-07T09:32:20.739Z,11.10
2018-08-07T09:34:53.782Z,10.70
2018-08-07T09:37:24.137Z,8.27
2018-08-07T09:39:55.726Z,8.20
2018-08-07T09:42:27.152Z,6.50
2018-08-07T09:44:57.585Z,8.83
2018-08-07T09:47:28.231Z,8.93
2018-08-07T09:50:02.731Z,6.60
2018-08-07T09:52:33.589Z,7.10
2018-08-07T09:55:03.588Z,7.93
2018-08-07T09:57:38.309Z,5.93
2018-08-07T10:00:27.729Z,9.10
2018-08-07T10:02:59.876Z,7.60
2018-08-07T10:05:31.880Z,7.13
2018-08-07T10:08:02.589Z,8.20
2018-08-07T10:10:33.940Z,8.27
2018-08-07T10:13:10.688Z,9.33
2018-08-07T10:15:41.838Z,8.83
2018-08-07T10:18:14.201Z,7.10
2018-08-07T10:20:45.526Z,6.80
2018-08-07T10:23:17.399Z,6.20
2018-08-07T10:25:47.480Z,6.93
2018-08-07T10:28:18.964Z,7.70
2018-08-07T10:30:47.973Z,10.50
2018-08-07T10:33:20.157Z,6.20
2018-08-07T10:35:50.222Z,7.93
2018-08-07T10:38:21.617Z,10.07
2018-08-07T10:40:55.989Z,8.67
2018-08-07T10:43:32.743Z,7.20
2018-08-07T10:46:02.136Z,7.60
2018-08-07T10:48:31.532Z,6.40
2018-08-07T10:51:00.585Z,7.83
2018-08-07T10:53:30.994Z,8.93
2018-08-07T11:08:59.618Z,7.70
2018-08-07T11:11:28.398Z,5.70
2018-08-07T11:13:57.189Z,8.43
2018-08-07T11:16:26.188Z,4.80
2018-08-07T11:18:54.845Z,8.37
2018-08-07T11:21:24.047Z,6.83
2018-08-07T11:23:52.614Z,6.03
2018-08-07T11:26:21.238Z,6.90
2018-08-07T11:28:49.882Z,6.67
2018-08-07T11:31:19.286Z,5.43
2018-08-07T11:33:48.380Z,5.10
2018-08-07T11:36:17.140Z,4.27
2018-08-07T11:38:46.037Z,7.83
2018-08-07T11:41:14.631Z,4.93
2018-08-07T11:43:43.934Z,8.13
2018-08-07T11:46:13.405Z,6.60
2018-08-07T11:48:42.114Z,4.43
2018-08-07T11:51:10.823Z,5.00
2018-08-07T11:53:39.235Z,4.83
2018-08-07T11:56:09.463Z,5.33
2018-08-07T11:58:37.777Z,5.03
2018-08-07T12:01:06.539Z,5.37
2018-08-07T12:03:37.101Z,5.33
2018-08-07T12:06:06.477Z,4.63
2018-08-07T12:08:35.140Z,5.07
2018-08-07T12:11:03.824Z,4.17
2018-08-07T12:13:35.104Z,4.77
2018-08-07T12:16:05.284Z,4.40
2018-08-07T12:18:34.208Z,3.80
2018-08-07T12:21:03.650Z,4.47
2018-08-07T12:23:32.191Z,3.17
2018-08-07T12:26:01.553Z,3.37
2018-08-07T12:28:31.560Z,4.60
2018-08-07T12:31:01.072Z,4.87
2018-08-07T12:33:30.488Z,4.20
2018-08-07T12:36:00.893Z,3.23
2018-08-07T12:38:29.414Z,5.53
2018-08-07T12:40:58.246Z,7.30
2018-08-07T12:43:26.811Z,3.90
2018-08-07T12:45:55.561Z,4.10
2018-08-07T12:48:24.724Z,3.23
2018-08-07T12:50:53.344Z,5.87
2018-08-07T12:53:21.648Z,3.53
2018-08-07T12:55:50.147Z,6.90
2018-08-07T12:58:19.347Z,4.07
2018-08-07T13:00:48.545Z,3.37
2018-08-07T13:03:18.195Z,4.73
2018-08-07T13:05:47.177Z,3.37
2018-08-07T13:08:17.478Z,6.00
2018-08-07T13:10:46.092Z,3.10
2018-08-07T13:13:15.344Z,3.97
2018-08-07T13:15:43.777Z,3.50
2018-08-07T13:18:13.447Z,3.80
2018-08-07T13:20:42.288Z,3.47
2018-08-07T13:23:13.976Z,4.63
2018-08-07T13:25:42.474Z,4.67
2018-08-07T13:28:12.948Z,3.70
2018-08-07T13:30:41.544Z,3.80
2018-08-07T13:33:10.162Z,3.73
2018-08-07T13:35:38.949Z,4.50
2018-08-07T13:38:07.737Z,4.25
2018-08-07T13:40:36.642Z,3.87
2018-08-07T13:43:05.554Z,3.20
2018-08-07T13:45:34.074Z,3.02
2018-08-07T13:48:03.412Z,3.27
2018-08-07T13:50:33.028Z,4.55
2018-08-07T13:53:02.621Z,4.42
2018-08-07T13:55:31.334Z,3.22
2018-08-07T13:58:00.468Z,3.42
2018-08-07T14:00:29.375Z,4.05
2018-08-07T14:02:58.369Z,3.30
2018-08-07T14:05:27.883Z,3.90
2018-08-07T14:07:59.147Z,3.25
2018-08-07T14:10:29.420Z,6.15
2018-08-07T14:12:59.389Z,3.60
2018-08-07T14:15:29.102Z,3.47
2018-08-07T14:17:57.813Z,3.87
2018-08-07T14:21:08.335Z,3.25
2018-08-07T14:23:36.813Z,5.45
2018-08-07T14:26:05.746Z,3.50
2018-08-07T14:28:34.140Z,3.60
2018-08-07T14:31:03.674Z,4.58
2018-08-07T14:33:32.232Z,3.73
2018-08-07T14:36:00.854Z,3.25
2018-08-07T14:38:29.619Z,4.12
2018-08-07T14:40:58.547Z,3.70
2018-08-07T14:43:27.272Z,5.40
2018-08-07T14:45:56.079Z,4.30
2018-08-07T14:48:24.960Z,4.95
2018-08-07T14:50:53.527Z,3.53
2018-08-07T14:53:25.702Z,7.03
2018-08-07T14:55:54.007Z,5.03
2018-08-07T14:58:22.666Z,4.33
2018-08-07T15:00:51.271Z,3.87
2018-08-07T15:03:19.996Z,6.37
2018-08-07T15:05:48.640Z,3.73
2018-08-07T15:08:18.089Z,4.70
2018-08-07T15:10:48.618Z,4.62
2018-08-07T15:13:17.680Z,3.02
2018-08-07T15:15:47.104Z,4.92
2018-08-07T15:18:17.420Z,5.13
2018-08-07T15:20:46.462Z,6.12
2018-08-07T15:23:14.811Z,3.40
2018-08-07T15:25:43.095Z,4.03
2018-08-07T15:28:13.194Z,5.93
2018-08-07T15:30:41.774Z,5.57
2018-08-07T15:33:10.969Z,4.80
2018-08-07T15:35:42.023Z,5.10
2018-08-07T15:38:10.772Z,3.23
2018-08-07T15:40:40.979Z,3.50
2018-08-07T15:43:11.300Z,3.40
2018-08-07T15:45:40.115Z,4.87
2018-08-07T15:48:10.600Z,4.10
2018-08-07T15:50:39.474Z,4.17
2018-08-07T15:53:08.825Z,4.10
2018-08-07T15:55:37.666Z,3.73
2018-08-07T15:58:08.106Z,4.40
2018-08-07T16:00:36.709Z,3.87
2018-08-07T16:03:05.745Z,4.40
2018-08-07T16:05:35.027Z,4.33
2018-08-07T16:08:03.575Z,4.53
2018-08-07T16:10:32.147Z,3.47
2018-08-07T16:13:01.049Z,5.20
2018-08-07T16:15:29.728Z,3.80
2018-08-07T16:17:58.337Z,4.83
2018-08-07T16:20:26.953Z,3.70
2018-08-07T16:22:55.242Z,3.30
2018-08-07T16:25:23.837Z,4.63
2018-08-07T16:27:52.416Z,3.90
2018-08-07T16:30:25.017Z,5.17
2018-08-07T16:32:53.581Z,3.83
2018-08-07T16:35:22.264Z,4.73
2018-08-07T16:37:50.788Z,3.67
2018-08-07T16:40:26.942Z,3.40
2018-08-07T16:42:55.981Z,6.50
2018-08-07T16:45:26.149Z,4.97
2018-08-07T16:47:55.101Z,4.30
2018-08-07T16:50:26.909Z,4.10
2018-08-07T16:52:58.056Z,3.90
2018-08-07T16:55:29.741Z,3.27
2018-08-07T16:58:00.286Z,6.60
2018-08-07T17:00:29.120Z,4.87
2018-08-07T17:02:59.055Z,4.53
2018-08-07T17:05:29.933Z,4.03
2018-08-07T17:07:58.769Z,4.50
2018-08-07T17:10:28.135Z,4.90
2018-08-07T17:12:56.893Z,3.63
2018-08-07T17:15:25.592Z,4.93
2018-08-07T17:17:55.086Z,3.93
2018-08-07T17:20:24.812Z,5.83
2018-08-07T17:22:54.285Z,4.07
2018-08-07T17:25:24.109Z,3.90
2018-08-07T17:27:53.873Z,4.80
2018-08-07T17:30:25.847Z,3.97
2018-08-07T17:32:55.574Z,5.60
2018-08-07T17:35:25.438Z,7.00
2018-08-07T17:37:56.747Z,5.33
2018-08-07T17:40:27.106Z,5.93
2018-08-07T17:45:30.544Z,5.50
2018-08-07T17:47:59.215Z,4.77
2018-08-07T17:50:29.201Z,6.80
2018-08-07T17:52:59.614Z,8.50
2018-08-07T17:55:29.463Z,5.27
2018-08-07T17:58:00.321Z,5.93
2018-08-07T18:00:28.977Z,4.30
2018-08-07T18:02:58.705Z,9.27
2018-08-07T18:05:27.294Z,5.83
2018-08-07T18:07:57.819Z,6.60
2018-08-07T18:10:26.537Z,6.93
2018-08-07T18:12:55.376Z,5.63
2018-08-07T18:15:24.787Z,7.47
2018-08-07T18:17:53.748Z,6.27
2018-08-07T18:20:23.758Z,7.03
2018-08-07T18:22:55.800Z,6.80
2018-08-07T18:25:26.360Z,5.03
2018-08-07T18:27:56.391Z,6.87
2018-08-07T18:30:26.358Z,4.70
2018-08-07T18:32:55.518Z,7.43
2018-08-07T18:35:25.940Z,4.47
2018-08-07T18:37:54.729Z,5.33
2018-08-07T18:40:27.538Z,4.10
2018-08-07T18:42:57.391Z,6.13
2018-08-07T18:48:01.689Z,7.83
2018-08-07T18:50:30.718Z,4.80
2018-08-07T18:53:00.515Z,8.53
2018-08-07T18:55:29.429Z,6.70
2018-08-07T18:57:57.998Z,5.33
2018-08-07T19:00:28.076Z,5.50
2018-08-07T19:02:57.092Z,5.27
2018-08-07T19:05:28.072Z,4.90
2018-08-07T19:07:57.056Z,4.53
2018-08-07T19:10:26.239Z,5.00
2018-08-07T19:12:56.209Z,5.13
2018-08-07T19:15:25.237Z,6.27
2018-08-07T19:17:54.376Z,7.00
2018-08-07T19:20:24.225Z,10.93
2018-08-07T19:22:54.879Z,7.50
2018-08-07T19:25:24.794Z,5.33
2018-08-07T19:27:54.434Z,8.43
2018-08-07T19:30:25.899Z,5.70
2018-08-07T19:32:58.227Z,5.73
2018-08-07T19:35:27.903Z,5.40
2018-08-07T19:37:58.243Z,6.10
2018-08-07T19:40:27.861Z,6.00
2018-08-07T19:42:56.467Z,8.77
2018-08-07T19:45:25.041Z,5.37
2018-08-07T19:47:54.009Z,4.20
2018-08-07T19:50:23.374Z,5.93
2018-08-07T19:52:59.242Z,6.20
2018-08-07T19:55:28.428Z,4.40
2018-08-07T19:57:57.693Z,4.63
2018-08-07T20:00:27.684Z,4.03
2018-08-07T20:02:58.003Z,6.73
2018-08-07T20:05:27.900Z,5.10
2018-08-07T20:07:58.661Z,4.83
2018-08-07T20:10:28.936Z,4.37
2018-08-07T20:12:57.692Z,4.50
2018-08-07T20:15:28.716Z,4.63
2018-08-07T20:17:58.359Z,4.87
2018-08-07T20:20:27.382Z,4.73
2018-08-07T20:22:56.535Z,4.93
2018-08-07T20:25:26.034Z,5.37
2018-08-07T20:27:54.787Z,6.53
2018-08-07T20:30:25.345Z,6.07
2018-08-07T20:32:56.445Z,4.03
2018-08-07T20:35:25.706Z,4.30
2018-08-07T20:37:55.691Z,4.60
2018-08-07T20:40:25.852Z,4.43
2018-08-07T20:42:58.401Z,3.90
2018-08-07T20:45:28.476Z,4.63
2018-08-07T20:47:58.279Z,5.47
2018-08-07T20:50:28.815Z,4.23
2018-08-07T20:52:57.853Z,6.27
2018-08-07T20:55:31.515Z,5.87
2018-08-07T20:58:00.783Z,4.40
2018-08-07T21:00:30.065Z,6.77
2018-08-07T21:02:58.509Z,4.23
2018-08-07T21:05:26.999Z,3.70
2018-08-07T21:07:55.968Z,6.10
2018-08-07T21:10:27.780Z,3.70
2018-08-07T21:12:57.416Z,4.00
2018-08-07T21:15:26.262Z,6.17
2018-08-07T21:17:55.152Z,5.80
2018-08-07T21:20:24.449Z,4.90
2018-08-07T21:22:53.303Z,5.40
2018-08-07T21:25:23.463Z,3.53
2018-08-07T21:27:54.027Z,6.97
2018-08-07T21:30:24.441Z,4.23
2018-08-07T21:32:53.797Z,4.03
2018-08-07T21:35:29.505Z,5.00
2018-08-07T21:37:58.297Z,4.97
2018-08-07T21:40:27.623Z,5.27
2018-08-07T21:42:57.044Z,4.63
2018-08-07T21:45:26.276Z,5.33
2018-08-07T21:47:54.914Z,4.67
2018-08-07T21:50:25.584Z,4.40
2018-08-07T21:52:54.873Z,4.63
2018-08-07T21:55:23.865Z,3.90
2018-08-07T21:57:52.785Z,6.57
2018-08-07T22:00:50.417Z,6.60
2018-08-07T22:03:19.323Z,4.57
2018-08-07T22:05:49.359Z,5.43
2018-08-07T22:08:17.752Z,4.23
2018-08-07T22:10:46.470Z,5.13
2018-08-07T22:13:15.842Z,5.03
2018-08-07T22:15:45.312Z,5.70
2018-08-07T22:18:15.320Z,6.40
2018-08-07T22:20:44.608Z,5.77
2018-08-07T22:23:12.896Z,6.83
2018-08-07T22:25:41.361Z,6.27
2018-08-07T22:28:10.791Z,12.07
2018-08-07T22:30:39.862Z,13.07
2018-08-07T22:33:08.765Z,10.73
2018-08-07T22:35:38.279Z,10.43
2018-08-07T22:38:07.558Z,9.50
2018-08-07T22:40:38.019Z,11.43
2018-08-07T22:43:07.474Z,10.10
2018-08-07T22:45:36.181Z,9.50
2018-08-07T22:48:08.051Z,10.50
2018-08-07T22:50:36.974Z,7.63
2018-08-07T22:53:05.558Z,9.70
2018-08-07T22:55:34.394Z,13.30
2018-08-07T22:58:03.003Z,7.53
2018-08-07T23:00:31.716Z,14.30
2018-08-07T23:03:01.460Z,14.30
2018-08-07T23:05:31.420Z,9.93
2018-08-07T23:08:00.101Z,11.37
2018-08-07T23:10:29.230Z,9.53
2018-08-07T23:12:57.604Z,12.07
2018-08-07T23:15:26.402Z,10.53
2018-08-07T23:17:55.619Z,11.17
2018-08-07T23:20:26.878Z,10.93
2018-08-07T23:22:57.318Z,10.97
2018-08-07T23:25:25.948Z,11.13
2018-08-07T23:27:55.221Z,12.50
2018-08-07T23:30:24.024Z,13.00
2018-08-07T23:32:52.668Z,11.97
2018-08-07T23:35:22.232Z,14.60
2018-08-07T23:37:51.931Z,15.40
2018-08-07T23:40:20.326Z,16.90
2018-08-07T23:42:48.821Z,16.77
2018-08-07T23:45:17.443Z,19.83
2018-08-07T23:47:46.763Z,19.27
2018-08-07T23:50:15.593Z,14.17
2018-08-07T23:52:45.123Z,16.33
2018-08-07T23:55:14.906Z,14.17
2018-08-07T23:57:45.408Z,15.97
